Brighton, Colorado
Current Conditions -  °F | °C
As of 6:53 AM on Thursday 18 Dec 2014 (Local Time) from KDEN Reporting Station
Haze Haze  
Wind Chill: 25°   Ceiling: 17000
Heat Index: 25°   Visibility: 6mi
Dew Point: 25°   Wind: 0mph
Humidity: 100%   Direction: NA
Pressure: 30.01"   Gusts: NA
Location:  39.99°N, 104.81°W
Report Text: KDEN 181353Z 00000KT 6SM BR FEW070 SCT130 BKN170 M04/M04 A3001 RMK AO2 SLP179 T10391039
Loading
Personal Weather Stations






























Interactive Weather Map New forecast layout! Learn more

10-Day Weather Forecast

Advertisements
Track Severe Weather on mobile